createdAt,value
2024-04-23T00:00:16.546Z,0.00
2024-04-23T00:01:16.614Z,0.00
2024-04-23T00:02:16.522Z,0.00
2024-04-23T00:03:16.571Z,0.00
2024-04-23T00:04:16.600Z,0.00
2024-04-23T00:05:16.518Z,0.00
2024-04-23T00:06:16.515Z,0.00
2024-04-23T00:07:16.469Z,0.00
2024-04-23T00:08:16.450Z,0.00
2024-04-23T00:09:16.436Z,0.00
2024-04-23T00:10:16.420Z,0.00
2024-04-23T00:11:16.595Z,0.00
2024-04-23T00:12:16.422Z,0.00
2024-04-23T00:13:16.382Z,0.00
2024-04-23T00:14:16.370Z,0.00
2024-04-23T00:15:16.361Z,0.00
2024-04-23T00:16:16.361Z,0.00
2024-04-23T00:17:16.326Z,0.00
2024-04-23T00:18:16.403Z,0.00
2024-04-23T00:19:16.302Z,0.00
2024-04-23T00:20:16.314Z,0.00
2024-04-23T00:21:16.291Z,0.00
2024-04-23T00:22:16.284Z,0.00
2024-04-23T00:23:16.291Z,0.00
2024-04-23T00:24:16.238Z,0.00
2024-04-23T00:25:16.241Z,0.00
2024-04-23T00:26:16.219Z,0.00
2024-04-23T00:27:16.207Z,0.00
2024-04-23T00:28:16.184Z,0.00
2024-04-23T00:29:16.203Z,0.00
2024-04-23T00:30:16.190Z,0.00
2024-04-23T00:31:16.150Z,0.00
2024-04-23T00:32:16.169Z,0.00
2024-04-23T00:33:16.233Z,0.00
2024-04-23T00:34:16.124Z,0.00
2024-04-23T00:35:16.263Z,0.00
2024-04-23T00:36:16.085Z,0.00
2024-04-23T00:37:16.080Z,0.00
2024-04-23T00:38:16.080Z,0.00
2024-04-23T00:39:16.166Z,0.00
2024-04-23T00:40:16.083Z,0.00
2024-04-23T00:41:16.024Z,0.00
2024-04-23T00:42:16.011Z,0.00
2024-04-23T00:43:16.010Z,0.00
2024-04-23T00:44:15.988Z,0.00
2024-04-23T00:45:15.982Z,0.00
2024-04-23T00:46:15.996Z,0.00
2024-04-23T00:47:15.965Z,0.00
2024-04-23T00:48:16.007Z,0.00
2024-04-23T00:49:15.932Z,0.00
2024-04-23T00:50:15.914Z,0.00
2024-04-23T00:51:15.907Z,0.00
2024-04-23T00:52:15.915Z,0.00
2024-04-23T00:53:15.875Z,0.00
2024-04-23T00:54:15.882Z,0.00
2024-04-23T00:55:15.873Z,0.00
2024-04-23T00:56:15.844Z,0.00
2024-04-23T00:57:15.853Z,0.00
2024-04-23T00:58:15.803Z,0.00
2024-04-23T00:59:15.801Z,0.00
2024-04-23T01:00:15.779Z,0.00
2024-04-23T01:01:15.792Z,0.00
2024-04-23T01:02:15.764Z,0.00
2024-04-23T01:03:15.878Z,0.00
2024-04-23T01:04:15.746Z,0.00
2024-04-23T01:05:15.773Z,0.00
2024-04-23T01:06:15.708Z,0.00
2024-04-23T01:07:15.710Z,0.00
2024-04-23T01:08:15.676Z,0.00
2024-04-23T01:09:15.710Z,0.00
2024-04-23T01:10:15.659Z,0.00
2024-04-23T01:11:15.682Z,0.00
2024-04-23T01:12:15.671Z,0.00
2024-04-23T01:13:15.623Z,0.00
2024-04-23T01:14:15.617Z,0.00
2024-04-23T01:15:15.633Z,0.00
2024-04-23T01:16:15.591Z,0.00
2024-04-23T01:17:15.646Z,0.00
2024-04-23T01:18:15.625Z,0.00
2024-04-23T01:19:15.560Z,0.00
2024-04-23T01:20:15.527Z,0.00
2024-04-23T01:21:15.547Z,0.00
2024-04-23T01:22:15.499Z,0.00
2024-04-23T01:23:15.494Z,0.00
2024-04-23T01:24:15.480Z,0.00
2024-04-23T01:25:15.484Z,0.00
2024-04-23T01:26:15.451Z,0.00
2024-04-23T01:27:15.467Z,0.00
2024-04-23T01:28:15.460Z,0.00
2024-04-23T01:29:15.414Z,0.00
2024-04-23T01:30:15.424Z,0.00
2024-04-23T01:31:15.403Z,0.00
2024-04-23T01:32:15.409Z,0.00
2024-04-23T01:33:15.428Z,0.00
2024-04-23T01:34:15.356Z,0.00
2024-04-23T01:35:15.348Z,0.00
2024-04-23T01:36:15.352Z,0.00
2024-04-23T01:37:15.320Z,0.00
2024-04-23T01:38:15.342Z,0.00
2024-04-23T01:39:15.297Z,0.00
2024-04-23T01:40:15.274Z,0.00
2024-04-23T01:41:15.273Z,0.00
2024-04-23T01:42:15.248Z,0.00
2024-04-23T01:43:15.241Z,0.00
2024-04-23T01:44:15.238Z,0.00
2024-04-23T01:45:15.231Z,0.00
2024-04-23T01:46:15.203Z,0.00
2024-04-23T01:47:15.314Z,0.00
2024-04-23T01:48:15.247Z,0.00
2024-04-23T01:49:15.202Z,0.00
2024-04-23T01:50:15.145Z,0.00
2024-04-23T01:51:15.140Z,0.00
2024-04-23T01:52:15.142Z,0.00
2024-04-23T01:53:15.107Z,0.00
2024-04-23T01:54:15.098Z,0.00
2024-04-23T01:55:15.112Z,0.00
2024-04-23T01:56:15.076Z,0.00
2024-04-23T01:57:15.071Z,0.00
2024-04-23T01:58:15.043Z,0.00
2024-04-23T01:59:15.028Z,0.00
2024-04-23T02:00:15.027Z,0.00
2024-04-23T02:01:15.087Z,0.00
2024-04-23T02:02:15.027Z,0.00
2024-04-23T02:03:15.018Z,0.00
2024-04-23T02:04:14.982Z,0.00
2024-04-23T02:05:14.962Z,0.00
2024-04-23T02:06:14.947Z,0.00
2024-04-23T02:07:14.961Z,0.00
2024-04-23T02:08:14.925Z,0.00
2024-04-23T02:09:14.906Z,0.00
2024-04-23T02:10:14.923Z,0.00
2024-04-23T02:11:14.989Z,0.00
2024-04-23T02:12:14.894Z,0.00
2024-04-23T02:13:14.889Z,0.00
2024-04-23T02:14:14.868Z,0.00
2024-04-23T02:15:14.842Z,0.00
2024-04-23T02:16:14.823Z,0.00
2024-04-23T02:17:14.866Z,0.00
2024-04-23T02:18:14.871Z,0.00
2024-04-23T02:19:14.791Z,0.00
2024-04-23T02:20:14.773Z,0.00
2024-04-23T02:21:14.766Z,0.00
2024-04-23T02:22:14.758Z,0.00
2024-04-23T02:23:14.732Z,0.00
2024-04-23T02:24:14.748Z,0.00
2024-04-23T02:25:14.725Z,0.00
2024-04-23T02:26:14.689Z,0.00
2024-04-23T02:27:14.700Z,0.00
2024-04-23T02:28:14.701Z,0.00
2024-04-23T02:29:14.668Z,0.00
2024-04-23T02:30:14.662Z,0.00
2024-04-23T02:31:14.627Z,0.00
2024-04-23T02:32:14.676Z,0.00
2024-04-23T02:33:14.684Z,0.00
2024-04-23T02:34:14.600Z,0.00
2024-04-23T02:35:14.586Z,0.00
2024-04-23T02:36:14.585Z,0.00
2024-04-23T02:37:14.566Z,0.00
2024-04-23T02:38:14.556Z,0.00
2024-04-23T02:39:14.543Z,0.00
2024-04-23T02:40:14.521Z,0.00
2024-04-23T02:41:14.534Z,0.00
2024-04-23T02:42:14.494Z,0.00
2024-04-23T02:43:14.480Z,0.00
2024-04-23T02:44:14.472Z,0.00
2024-04-23T02:45:14.454Z,0.00
2024-04-23T02:46:14.436Z,0.00
2024-04-23T02:47:14.487Z,0.00
2024-04-23T02:48:14.519Z,0.00
2024-04-23T02:49:14.408Z,0.00
2024-04-23T02:50:14.414Z,0.00
2024-04-23T02:51:14.387Z,0.00
2024-04-23T02:52:14.371Z,0.00
2024-04-23T02:53:14.419Z,0.00
2024-04-23T02:54:14.341Z,0.00
2024-04-23T02:55:14.396Z,0.00
2024-04-23T02:56:14.323Z,0.00
2024-04-23T02:57:14.321Z,0.00
2024-04-23T02:58:14.314Z,0.00
2024-04-23T02:59:14.294Z,0.00
2024-04-23T03:00:14.264Z,0.00
2024-04-23T03:01:14.254Z,0.00
2024-04-23T03:02:14.403Z,0.00
2024-04-23T03:03:14.317Z,0.00
2024-04-23T03:04:14.250Z,0.00
2024-04-23T03:05:14.233Z,0.00
2024-04-23T03:06:14.202Z,0.00
2024-04-23T03:07:14.179Z,0.00
2024-04-23T03:08:14.177Z,0.00
2024-04-23T03:09:14.165Z,0.00
2024-04-23T03:10:14.168Z,0.00
2024-04-23T03:11:14.276Z,0.00
2024-04-23T03:12:14.113Z,0.00
2024-04-23T03:13:14.108Z,0.00
2024-04-23T03:14:14.095Z,0.00
2024-04-23T03:15:14.113Z,0.00
2024-04-23T03:16:14.077Z,0.00
2024-04-23T03:17:14.063Z,0.00
2024-04-23T03:18:14.133Z,0.00
2024-04-23T03:19:14.040Z,0.00
2024-04-23T03:20:14.024Z,0.00
2024-04-23T03:21:14.037Z,0.00
2024-04-23T03:22:14.000Z,0.00
2024-04-23T03:23:13.972Z,0.00
2024-04-23T03:24:13.967Z,0.00
2024-04-23T03:25:13.968Z,0.00
2024-04-23T03:26:13.939Z,0.00
2024-04-23T03:27:13.954Z,0.00
2024-04-23T03:28:13.908Z,0.00
2024-04-23T03:29:13.912Z,0.00
2024-04-23T03:30:13.894Z,0.00
2024-04-23T03:31:13.887Z,0.00
2024-04-23T03:32:13.958Z,0.00
2024-04-23T03:33:13.932Z,0.00
2024-04-23T03:34:13.845Z,0.00
2024-04-23T03:35:13.841Z,0.00
2024-04-23T03:36:17.328Z,0.00
2024-04-23T03:37:13.829Z,0.00
2024-04-23T03:38:13.806Z,0.00
2024-04-23T03:39:13.925Z,0.00
2024-04-23T03:40:13.768Z,0.00
2024-04-23T03:41:13.772Z,0.00
2024-04-23T03:42:13.733Z,0.00
2024-04-23T03:43:13.730Z,0.00
2024-04-23T03:44:13.723Z,0.00
2024-04-23T03:45:13.715Z,0.00
2024-04-23T03:46:13.692Z,0.00
2024-04-23T03:47:13.712Z,0.00
2024-04-23T03:48:13.735Z,0.00
2024-04-23T03:49:13.683Z,0.00
2024-04-23T03:50:13.654Z,0.00
2024-04-23T03:51:13.623Z,0.00
2024-04-23T03:52:13.613Z,0.00
2024-04-23T03:53:13.593Z,4.00
2024-04-23T03:54:13.608Z,0.00
2024-04-23T03:55:13.641Z,0.00
2024-04-23T03:56:13.582Z,4.00
2024-04-23T03:57:13.575Z,4.00
2024-04-23T03:58:13.540Z,4.00
2024-04-23T03:59:13.528Z,4.00
2024-04-23T04:00:13.512Z,4.00
2024-04-23T04:01:13.554Z,8.00
2024-04-23T04:02:13.592Z,4.00
2024-04-23T04:03:13.525Z,8.00
2024-04-23T04:04:13.459Z,8.00
2024-04-23T04:05:13.466Z,8.00
2024-04-23T04:06:13.571Z,8.00
2024-04-23T04:07:13.430Z,12.00
2024-04-23T04:08:13.443Z,16.00
2024-04-23T04:09:13.454Z,20.00
2024-04-23T04:10:13.417Z,20.00
2024-04-23T04:11:13.531Z,24.00
2024-04-23T04:12:13.425Z,28.00
2024-04-23T04:13:21.300Z,32.00
2024-04-23T04:14:13.343Z,36.00
2024-04-23T04:15:13.334Z,40.00
2024-04-23T04:16:13.325Z,44.00
2024-04-23T04:17:13.412Z,44.00
2024-04-23T04:18:13.380Z,56.00
2024-04-23T04:19:13.287Z,60.00
2024-04-23T04:20:13.301Z,68.00
2024-04-23T04:21:13.263Z,80.00
2024-04-23T04:22:13.255Z,96.00
2024-04-23T04:23:13.257Z,112.00
2024-04-23T04:24:13.213Z,120.00
2024-04-23T04:25:13.207Z,136.00
2024-04-23T04:26:13.327Z,144.00
2024-04-23T04:27:13.194Z,160.00
2024-04-23T04:28:13.174Z,176.00
2024-04-23T04:29:13.165Z,200.00
2024-04-23T04:30:13.160Z,224.00
2024-04-23T04:31:13.125Z,240.00
2024-04-23T04:32:13.178Z,256.00
2024-04-23T04:33:13.186Z,280.00
2024-04-23T04:34:13.116Z,316.00
2024-04-23T04:35:13.075Z,324.00
2024-04-23T04:36:13.073Z,368.00
2024-04-23T04:37:13.050Z,328.00
2024-04-23T04:38:13.032Z,320.00
2024-04-23T04:39:13.088Z,352.00
2024-04-23T04:40:13.037Z,420.00
2024-04-23T04:41:13.015Z,472.00
2024-04-23T04:42:12.986Z,460.00
2024-04-23T04:43:12.987Z,448.00
2024-04-23T04:44:13.017Z,476.00
2024-04-23T04:45:12.948Z,492.00
2024-04-23T04:46:12.966Z,480.00
2024-04-23T04:47:12.967Z,480.00
2024-04-23T04:48:13.140Z,460.00
2024-04-23T04:49:12.965Z,420.00
2024-04-23T04:50:12.909Z,388.00
2024-04-23T04:51:12.919Z,428.00
2024-04-23T04:52:12.881Z,468.00
2024-04-23T04:53:12.863Z,512.00
2024-04-23T04:54:12.873Z,536.00
2024-04-23T04:55:12.826Z,548.00
2024-04-23T04:56:12.804Z,668.00
2024-04-23T04:57:12.819Z,756.00
2024-04-23T04:58:12.815Z,748.00
2024-04-23T04:59:12.768Z,680.00
2024-04-23T05:00:12.755Z,732.00
2024-04-23T05:01:12.777Z,880.00
2024-04-23T05:02:12.866Z,924.00
2024-04-23T05:03:12.728Z,964.00
2024-04-23T05:04:12.745Z,1072.00
2024-04-23T05:05:12.692Z,1060.00
2024-04-23T05:06:12.726Z,960.00
2024-04-23T05:07:12.683Z,1064.00
2024-04-23T05:08:12.732Z,1068.00
2024-04-23T05:09:12.644Z,1112.00
2024-04-23T05:10:12.624Z,1276.00
2024-04-23T05:11:12.615Z,1392.00
2024-04-23T05:12:14.308Z,1412.00
2024-04-23T05:13:12.603Z,1412.00
2024-04-23T05:14:12.606Z,1456.00
2024-04-23T05:15:12.567Z,1524.00
2024-04-23T05:16:12.583Z,1660.00
2024-04-23T05:17:12.614Z,1668.00
2024-04-23T05:18:12.640Z,1596.00
2024-04-23T05:19:12.523Z,1620.00
2024-04-23T05:20:12.539Z,1736.00
2024-04-23T05:21:12.505Z,1788.00
2024-04-23T05:22:12.509Z,1704.00
2024-04-23T05:23:12.494Z,1608.00
2024-04-23T05:24:12.459Z,1584.00
2024-04-23T05:25:12.489Z,1440.00
2024-04-23T05:26:12.440Z,1444.00
2024-04-23T05:27:12.414Z,1516.00
2024-04-23T05:28:12.443Z,1592.00
2024-04-23T05:29:12.412Z,1740.00
2024-04-23T05:30:12.395Z,1844.00
2024-04-23T05:31:12.407Z,2104.00
2024-04-23T05:32:12.498Z,2076.00
2024-04-23T05:33:12.402Z,2044.00
2024-04-23T05:34:12.356Z,1928.00
2024-04-23T05:35:12.373Z,1956.00
2024-04-23T05:36:12.326Z,1992.00
2024-04-23T05:37:12.327Z,2028.00
2024-04-23T05:38:13.937Z,2176.00
2024-04-23T05:39:12.273Z,2288.00
2024-04-23T05:40:12.263Z,2372.00
2024-04-23T05:41:12.263Z,2608.00
2024-04-23T05:42:12.233Z,2892.00
2024-04-23T05:43:12.261Z,3120.00
2024-04-23T05:44:12.242Z,3372.00
2024-04-23T05:45:12.232Z,3520.00
2024-04-23T05:46:12.178Z,3552.00
2024-04-23T05:47:12.369Z,3636.00
2024-04-23T05:48:12.238Z,3908.00
2024-04-23T05:49:12.154Z,4288.00
2024-04-23T05:50:12.177Z,4648.00
2024-04-23T05:51:12.112Z,5124.00
2024-04-23T05:52:19.808Z,5580.00
2024-04-23T05:53:12.122Z,5956.00
2024-04-23T05:54:12.090Z,5928.00
2024-04-23T05:55:12.069Z,6484.00
2024-04-23T05:56:12.113Z,6848.00
2024-04-23T05:57:12.066Z,6648.00
2024-04-23T05:58:12.033Z,6692.00
2024-04-23T05:59:12.081Z,6968.00
2024-04-23T06:00:12.002Z,6880.00
2024-04-23T06:01:12.033Z,6828.00
2024-04-23T06:02:11.992Z,6956.00
2024-04-23T06:03:11.980Z,6896.00
2024-04-23T06:04:12.010Z,6420.00
2024-04-23T06:05:11.985Z,5940.00
2024-04-23T06:06:11.946Z,5856.00
2024-04-23T06:07:11.919Z,5836.00
2024-04-23T06:08:12.016Z,5688.00
2024-04-23T06:09:11.891Z,5472.00
2024-04-23T06:10:11.907Z,5168.00
2024-04-23T06:11:12.119Z,4880.00
2024-04-23T06:12:11.847Z,4736.00
2024-04-23T06:13:11.843Z,4480.00
2024-04-23T06:14:11.852Z,4364.00
2024-04-23T06:15:11.843Z,4488.00
2024-04-23T06:16:11.825Z,5028.00
2024-04-23T06:17:11.797Z,5276.00
2024-04-23T06:18:11.828Z,5396.00
2024-04-23T06:19:11.785Z,6048.00
2024-04-23T06:20:11.764Z,6540.00
2024-04-23T06:21:11.796Z,6236.00
2024-04-23T06:22:11.817Z,6028.00
2024-04-23T06:23:11.807Z,6020.00
2024-04-23T06:24:11.708Z,5964.00
2024-04-23T06:25:11.754Z,5616.00
2024-04-23T06:26:11.708Z,5352.00
2024-04-23T06:27:11.687Z,5516.00
2024-04-23T06:28:11.660Z,5780.00
2024-04-23T06:29:11.654Z,5420.00
2024-04-23T06:30:11.638Z,5416.00
2024-04-23T06:31:11.626Z,5564.00
2024-04-23T06:32:11.639Z,5548.00
2024-04-23T06:33:11.736Z,5576.00
2024-04-23T06:34:11.575Z,5352.00
2024-04-23T06:35:11.604Z,5084.00
2024-04-23T06:36:11.554Z,4956.00
2024-04-23T06:37:11.533Z,5100.00
2024-04-23T06:38:11.600Z,4780.00
2024-04-23T06:39:11.513Z,4428.00
2024-04-23T06:40:11.505Z,4020.00
2024-04-23T06:41:11.494Z,4648.00
2024-04-23T06:42:11.471Z,4624.00
2024-04-23T06:43:14.193Z,4952.00
2024-04-23T06:44:11.490Z,4560.00
2024-04-23T06:45:11.421Z,5200.00
2024-04-23T06:46:11.432Z,5104.00
2024-04-23T06:47:11.420Z,5028.00
2024-04-23T06:48:11.459Z,5456.00
2024-04-23T06:49:11.390Z,5412.00
2024-04-23T06:50:11.437Z,5540.00
2024-04-23T06:51:11.376Z,5560.00
2024-04-23T06:52:11.351Z,6556.00
2024-04-23T06:53:11.380Z,6900.00
2024-04-23T06:54:11.354Z,6840.00
2024-04-23T06:55:11.364Z,7328.00
2024-04-23T06:56:11.362Z,7204.00
2024-04-23T06:57:11.309Z,7568.00
2024-04-23T06:58:11.274Z,8356.00
2024-04-23T06:59:11.274Z,8000.00
2024-04-23T07:00:11.250Z,7280.00
2024-04-23T07:01:11.304Z,8600.00
2024-04-23T07:02:11.282Z,9428.00
2024-04-23T07:03:11.198Z,8244.00
2024-04-23T07:04:11.196Z,8808.00
2024-04-23T07:05:11.335Z,9032.00
2024-04-23T07:06:11.166Z,9840.00
2024-04-23T07:07:11.185Z,9212.00
2024-04-23T07:08:11.148Z,7296.00
2024-04-23T07:09:11.144Z,7364.00
2024-04-23T07:10:11.129Z,8192.00
2024-04-23T07:11:11.242Z,9972.00
2024-04-23T07:12:11.129Z,8924.00
2024-04-23T07:13:11.066Z,9708.00
2024-04-23T07:14:11.111Z,9876.00
2024-04-23T07:15:11.058Z,9988.00
2024-04-23T07:16:11.058Z,9836.00
2024-04-23T07:17:11.147Z,9256.00
2024-04-23T07:18:11.127Z,10008.00
2024-04-23T07:19:11.055Z,11232.00
2024-04-23T07:20:11.022Z,11400.00
2024-04-23T07:21:11.029Z,11676.00
2024-04-23T07:22:10.971Z,13012.00
2024-04-23T07:23:11.045Z,12496.00
2024-04-23T07:24:10.993Z,11816.00
2024-04-23T07:25:10.928Z,9960.00
2024-04-23T07:26:10.960Z,11280.00
2024-04-23T07:27:10.915Z,12092.00
2024-04-23T07:28:10.900Z,12928.00
2024-04-23T07:29:10.947Z,13712.00
2024-04-23T07:30:10.913Z,14764.00
2024-04-23T07:31:10.840Z,15488.00
2024-04-23T07:32:11.064Z,15212.00
2024-04-23T07:33:10.920Z,15520.00
2024-04-23T07:34:10.810Z,14444.00
2024-04-23T07:35:10.883Z,15520.00
2024-04-23T07:36:10.837Z,15712.00
2024-04-23T07:37:10.798Z,15264.00
2024-04-23T07:38:10.894Z,15092.00
2024-04-23T07:39:10.746Z,14412.00
2024-04-23T07:40:10.727Z,14664.00
2024-04-23T07:41:10.758Z,13384.00
2024-04-23T07:42:10.759Z,13072.00
2024-04-23T07:43:10.766Z,14668.00
2024-04-23T07:44:10.819Z,13328.00
2024-04-23T07:45:10.658Z,13768.00
2024-04-23T07:46:10.653Z,12972.00
2024-04-23T07:47:10.766Z,13644.00
2024-04-23T07:48:10.750Z,13916.00
2024-04-23T07:49:10.610Z,14976.00
2024-04-23T07:50:10.696Z,14100.00
2024-04-23T07:51:10.614Z,13360.00
2024-04-23T07:52:10.583Z,10624.00
2024-04-23T07:53:10.619Z,9932.00
2024-04-23T07:54:10.548Z,10592.00
2024-04-23T07:55:10.536Z,10048.00
2024-04-23T07:56:10.606Z,10376.00
2024-04-23T07:57:10.510Z,11636.00
2024-04-23T07:58:10.514Z,12292.00
2024-04-23T07:59:10.567Z,12016.00
2024-04-23T08:00:10.458Z,13192.00
2024-04-23T08:01:10.487Z,14096.00
2024-04-23T08:02:10.529Z,14668.00
2024-04-23T08:03:11.528Z,15128.00
2024-04-23T08:04:10.529Z,13036.00
2024-04-23T08:05:10.452Z,12200.00
2024-04-23T08:06:10.394Z,11340.00
2024-04-23T08:07:10.381Z,12284.00
2024-04-23T08:08:10.389Z,13128.00
2024-04-23T08:09:10.345Z,15808.00
2024-04-23T08:10:10.383Z,17280.00
2024-04-23T08:11:10.557Z,19456.00
2024-04-23T08:12:10.473Z,20640.00
2024-04-23T08:13:10.322Z,18624.00
2024-04-23T08:14:10.338Z,21728.00
2024-04-23T08:15:10.281Z,19136.00
2024-04-23T08:16:10.285Z,15616.00
2024-04-23T08:17:10.425Z,16064.00
2024-04-23T08:18:10.418Z,20320.00
2024-04-23T08:19:10.252Z,23200.00
2024-04-23T08:20:10.214Z,26144.00
2024-04-23T08:21:10.235Z,23040.00
2024-04-23T08:22:10.185Z,21824.00
2024-04-23T08:23:10.374Z,17088.00
2024-04-23T08:24:10.153Z,14224.00
2024-04-23T08:25:10.152Z,15552.00
2024-04-23T08:26:10.381Z,15872.00
2024-04-23T08:27:10.160Z,16384.00
2024-04-23T08:28:10.102Z,14760.00
2024-04-23T08:29:10.185Z,16192.00
2024-04-23T08:30:10.084Z,16096.00
2024-04-23T08:31:10.098Z,17056.00
2024-04-23T08:32:10.068Z,14408.00
2024-04-23T08:33:10.089Z,13732.00
2024-04-23T08:34:10.044Z,15456.00
2024-04-23T08:35:10.065Z,16608.00
2024-04-23T08:36:10.002Z,17664.00
2024-04-23T08:37:09.989Z,18656.00
2024-04-23T08:38:10.025Z,17600.00
2024-04-23T08:39:09.966Z,17312.00
2024-04-23T08:40:09.958Z,17632.00
2024-04-23T08:41:09.972Z,17248.00
2024-04-23T08:42:09.931Z,16864.00
2024-04-23T08:43:09.910Z,16288.00
2024-04-23T08:44:10.005Z,16960.00
2024-04-23T08:45:09.906Z,18912.00
2024-04-23T08:46:09.891Z,27616.00
2024-04-23T08:47:09.932Z,28672.00
2024-04-23T08:48:09.949Z,25152.00
2024-04-23T08:49:09.834Z,22944.00
2024-04-23T08:50:09.870Z,29664.00
2024-04-23T08:51:09.809Z,28032.00
2024-04-23T08:52:09.794Z,26016.00
2024-04-23T08:53:09.908Z,18176.00
2024-04-23T08:54:09.787Z,17024.00
2024-04-23T08:55:09.767Z,18624.00
2024-04-23T08:56:09.803Z,20448.00
2024-04-23T08:57:09.754Z,16576.00
2024-04-23T08:58:09.736Z,12516.00
2024-04-23T08:59:09.760Z,10488.00
2024-04-23T09:00:09.693Z,9616.00
2024-04-23T09:01:09.746Z,9228.00
2024-04-23T09:02:09.729Z,9652.00
2024-04-23T09:03:09.680Z,10996.00
2024-04-23T09:04:09.765Z,11780.00
2024-04-23T09:05:09.645Z,12688.00
2024-04-23T09:06:09.616Z,12672.00
2024-04-23T09:07:15.004Z,12280.00
2024-04-23T09:08:09.726Z,14108.00
2024-04-23T09:09:09.576Z,13796.00
2024-04-23T09:10:09.612Z,14484.00
2024-04-23T09:11:09.584Z,15648.00
2024-04-23T09:12:09.560Z,15616.00
2024-04-23T09:13:09.564Z,15120.00
2024-04-23T09:14:09.589Z,15936.00
2024-04-23T09:15:09.516Z,13696.00
2024-04-23T09:16:09.501Z,12808.00
2024-04-23T09:17:09.561Z,13968.00
2024-04-23T09:18:09.598Z,12276.00
2024-04-23T09:19:09.452Z,10912.00
2024-04-23T09:20:09.488Z,12444.00
2024-04-23T09:21:09.436Z,14956.00
2024-04-23T09:22:09.812Z,13860.00
2024-04-23T09:23:09.427Z,13828.00
2024-04-23T09:24:09.471Z,13692.00
2024-04-23T09:25:09.447Z,12640.00
2024-04-23T09:26:09.717Z,12736.00
2024-04-23T09:27:10.107Z,12876.00
2024-04-23T09:28:09.378Z,15424.00
2024-04-23T09:29:09.428Z,18144.00
2024-04-23T09:30:09.401Z,18368.00
2024-04-23T09:31:09.286Z,21632.00
2024-04-23T09:32:09.529Z,18368.00
2024-04-23T09:33:09.436Z,16768.00
2024-04-23T09:34:09.272Z,16896.00
2024-04-23T09:35:09.308Z,16192.00
2024-04-23T09:36:09.309Z,20224.00
2024-04-23T09:37:09.557Z,20672.00
2024-04-23T09:38:09.638Z,19968.00
2024-04-23T09:39:09.185Z,23872.00
2024-04-23T09:40:09.172Z,26144.00
2024-04-23T09:41:09.295Z,23296.00
2024-04-23T09:42:09.196Z,23328.00
2024-04-23T09:43:09.144Z,21088.00
2024-04-23T09:44:09.199Z,19392.00
2024-04-23T09:45:09.107Z,25568.00
2024-04-23T09:46:10.964Z,25152.00
2024-04-23T09:47:09.231Z,24608.00
2024-04-23T09:48:09.295Z,37088.00
2024-04-23T09:49:09.051Z,31264.00
2024-04-23T09:50:09.139Z,37920.00
2024-04-23T09:51:09.036Z,32288.00
2024-04-23T09:52:09.029Z,30272.00
2024-04-23T09:53:09.194Z,30496.00
2024-04-23T09:54:09.012Z,27744.00
2024-04-23T09:55:09.002Z,23456.00
2024-04-23T09:56:09.052Z,20640.00
2024-04-23T09:57:08.946Z,19008.00
2024-04-23T09:58:08.962Z,19392.00
2024-04-23T09:59:08.965Z,21568.00
2024-04-23T10:00:08.917Z,21888.00
2024-04-23T10:01:08.970Z,21824.00
2024-04-23T10:02:08.912Z,22400.00
2024-04-23T10:03:10.013Z,18784.00
2024-04-23T10:04:08.982Z,17440.00
2024-04-23T10:05:09.410Z,16800.00
2024-04-23T10:06:08.844Z,16416.00
2024-04-23T10:07:08.840Z,14196.00
2024-04-23T10:08:08.874Z,13828.00
2024-04-23T10:09:08.796Z,12380.00
2024-04-23T10:10:08.842Z,12420.00
2024-04-23T10:11:08.807Z,11920.00
2024-04-23T10:12:08.762Z,12336.00
2024-04-23T10:13:08.752Z,11976.00
2024-04-23T10:14:08.797Z,14292.00
2024-04-23T10:15:08.735Z,16640.00
2024-04-23T10:16:08.712Z,15520.00
2024-04-23T10:17:08.811Z,14808.00
2024-04-23T10:18:08.792Z,15520.00
2024-04-23T10:19:08.674Z,14780.00
2024-04-23T10:20:09.018Z,13620.00
2024-04-23T10:21:08.649Z,12700.00
2024-04-23T10:22:08.643Z,14436.00
2024-04-23T10:23:08.694Z,16832.00
2024-04-23T10:24:08.614Z,20000.00
2024-04-23T10:25:08.601Z,21312.00
2024-04-23T10:26:08.636Z,20768.00
2024-04-23T10:27:08.587Z,21984.00
2024-04-23T10:28:08.571Z,23456.00
2024-04-23T10:29:08.601Z,28000.00
2024-04-23T10:30:08.544Z,26400.00
2024-04-23T10:31:08.509Z,27424.00
2024-04-23T10:32:08.617Z,28320.00
2024-04-23T10:33:08.554Z,25952.00
2024-04-23T10:34:08.476Z,21248.00
2024-04-23T10:35:08.472Z,18848.00
2024-04-23T10:36:08.462Z,22880.00
2024-04-23T10:37:08.431Z,23936.00
2024-04-23T10:38:08.564Z,19904.00
2024-04-23T10:39:08.411Z,16832.00
2024-04-23T10:40:08.450Z,16928.00
2024-04-23T10:41:08.488Z,20096.00
2024-04-23T10:42:08.368Z,21536.00
2024-04-23T10:43:08.376Z,23296.00
2024-04-23T10:44:08.400Z,22560.00
2024-04-23T10:45:08.393Z,24512.00
2024-04-23T10:46:08.316Z,26400.00
2024-04-23T10:47:08.385Z,22528.00
2024-04-23T10:48:08.332Z,22208.00
2024-04-23T10:49:08.311Z,22336.00
2024-04-23T10:50:08.354Z,20928.00
2024-04-23T10:51:08.266Z,19840.00
2024-04-23T10:52:08.237Z,19904.00
2024-04-23T10:53:08.361Z,20032.00
2024-04-23T10:54:11.451Z,17952.00
2024-04-23T10:55:08.227Z,16256.00
2024-04-23T10:56:08.209Z,15360.00
2024-04-23T10:57:08.173Z,15936.00
2024-04-23T10:58:08.164Z,17088.00
2024-04-23T10:59:08.204Z,15680.00
2024-04-23T11:00:08.153Z,13200.00
2024-04-23T11:01:08.282Z,14168.00
2024-04-23T11:02:08.255Z,13368.00
2024-04-23T11:03:08.233Z,13468.00
2024-04-23T11:04:08.101Z,15456.00
2024-04-23T11:05:08.240Z,15424.00
2024-04-23T11:06:11.330Z,17760.00
2024-04-23T11:07:08.069Z,21344.00
2024-04-23T11:08:08.093Z,23744.00
2024-04-23T11:09:08.012Z,26208.00
2024-04-23T11:10:08.025Z,28192.00
2024-04-23T11:11:08.116Z,28672.00
2024-04-23T11:12:10.566Z,28448.00
2024-04-23T11:13:07.964Z,25024.00
2024-04-23T11:14:08.082Z,23776.00
2024-04-23T11:15:07.953Z,24256.00
2024-04-23T11:16:07.942Z,23200.00
2024-04-23T11:17:08.017Z,22976.00
2024-04-23T11:18:11.173Z,24384.00
2024-04-23T11:19:08.013Z,23904.00
2024-04-23T11:20:07.984Z,20576.00
2024-04-23T11:21:07.873Z,18528.00
2024-04-23T11:22:07.859Z,16448.00
2024-04-23T11:23:07.885Z,16256.00
2024-04-23T11:24:10.026Z,18592.00
2024-04-23T11:25:07.813Z,19712.00
2024-04-23T11:26:07.998Z,17504.00
2024-04-23T11:27:07.825Z,17600.00
2024-04-23T11:28:07.933Z,21568.00
2024-04-23T11:29:07.889Z,23936.00
2024-04-23T11:30:10.421Z,24640.00
2024-04-23T11:31:07.728Z,20096.00
2024-04-23T11:32:07.780Z,15776.00
2024-04-23T11:33:07.876Z,15040.00
2024-04-23T11:34:07.696Z,17216.00
2024-04-23T11:35:08.068Z,18944.00
2024-04-23T11:36:10.513Z,18240.00
2024-04-23T11:37:07.655Z,15072.00
2024-04-23T11:38:07.690Z,14284.00
2024-04-23T11:39:07.674Z,16448.00
2024-04-23T11:40:07.616Z,18112.00
2024-04-23T11:41:07.632Z,15648.00
2024-04-23T11:42:09.050Z,13100.00
2024-04-23T11:43:07.811Z,11812.00
2024-04-23T11:44:07.797Z,10452.00
2024-04-23T11:45:07.560Z,9528.00
2024-04-23T11:46:07.532Z,9564.00
2024-04-23T11:47:07.582Z,9216.00
2024-04-23T11:48:07.676Z,9220.00
2024-04-23T11:49:07.540Z,9048.00
2024-04-23T11:50:08.132Z,8932.00
2024-04-23T11:51:07.460Z,9436.00
2024-04-23T11:52:08.621Z,10984.00
2024-04-23T11:53:07.527Z,11220.00
2024-04-23T11:54:07.466Z,12596.00
2024-04-23T11:55:07.482Z,12712.00
2024-04-23T11:56:07.509Z,11460.00
2024-04-23T11:57:07.389Z,11148.00
2024-04-23T11:58:07.400Z,10636.00
2024-04-23T11:59:07.397Z,10060.00
2024-04-23T12:00:07.347Z,9880.00
2024-04-23T12:01:07.450Z,9548.00
2024-04-23T12:02:07.402Z,10256.00
2024-04-23T12:03:07.300Z,9984.00
2024-04-23T12:04:07.334Z,9440.00
2024-04-23T12:05:07.445Z,8916.00
2024-04-23T12:06:07.561Z,9024.00
2024-04-23T12:07:07.285Z,9916.00
2024-04-23T12:08:07.451Z,10304.00
2024-04-23T12:09:07.239Z,9872.00
2024-04-23T12:10:07.229Z,9944.00
2024-04-23T12:11:07.337Z,10384.00
2024-04-23T12:12:07.201Z,10860.00
2024-04-23T12:13:07.229Z,11068.00
2024-04-23T12:14:07.276Z,12112.00
2024-04-23T12:15:07.436Z,12360.00
2024-04-23T12:16:07.145Z,12744.00
2024-04-23T12:17:07.203Z,12024.00
2024-04-23T12:18:07.235Z,11520.00
2024-04-23T12:19:07.123Z,11028.00
2024-04-23T12:20:07.185Z,11316.00
2024-04-23T12:21:07.075Z,12088.00